createdAt,value
2023-01-23T00:01:26.422Z,71.27
2023-01-23T00:03:54.795Z,71.42
2023-01-23T00:06:21.917Z,71.24
2023-01-23T00:08:48.818Z,71.33
2023-01-23T00:11:20.616Z,71.38
2023-01-23T00:13:47.535Z,71.23
2023-01-23T00:16:18.445Z,71.40
2023-01-23T00:18:46.086Z,71.42
2023-01-23T00:21:17.100Z,71.30
2023-01-23T00:23:47.035Z,71.05
2023-01-23T00:26:18.283Z,71.24
2023-01-23T00:28:46.291Z,71.18
2023-01-23T00:31:29.573Z,71.20
2023-01-23T00:34:01.678Z,71.25
2023-01-23T00:36:32.851Z,71.00
2023-01-23T00:38:59.995Z,71.64
2023-01-23T00:41:27.363Z,71.71
2023-01-23T00:43:54.711Z,71.43
2023-01-23T00:46:22.511Z,71.99
2023-01-23T00:48:50.237Z,72.00
2023-01-23T00:51:17.535Z,72.23
2023-01-23T00:53:45.267Z,72.07
2023-01-23T00:56:12.273Z,72.14
2023-01-23T00:58:40.463Z,72.27
2023-01-23T01:01:08.012Z,72.06
2023-01-23T01:03:35.570Z,72.46
2023-01-23T01:06:02.890Z,72.34
2023-01-23T01:08:29.754Z,72.71
2023-01-23T01:10:56.595Z,72.45
2023-01-23T01:13:27.406Z,72.49
2023-01-23T01:15:54.969Z,72.45
2023-01-23T01:18:22.942Z,72.64
2023-01-23T01:20:51.315Z,72.55
2023-01-23T01:23:19.011Z,72.01
2023-01-23T01:25:46.168Z,71.54
2023-01-23T01:28:13.741Z,71.22
2023-01-23T01:30:41.281Z,70.71
2023-01-23T01:33:08.352Z,70.87
2023-01-23T01:35:35.218Z,70.86
2023-01-23T01:38:02.044Z,71.52
2023-01-23T01:40:33.970Z,73.03
2023-01-23T01:43:06.898Z,73.00
2023-01-23T01:46:05.770Z,72.73
2023-01-23T01:49:05.419Z,72.56
2023-01-23T01:51:52.716Z,72.81
2023-01-23T01:54:53.077Z,72.75
2023-01-23T01:57:36.941Z,72.84
2023-01-23T02:00:15.628Z,72.39
2023-01-23T02:02:47.035Z,72.59
2023-01-23T02:05:22.748Z,71.62
2023-01-23T02:08:04.699Z,71.69
2023-01-23T02:10:36.277Z,71.52
2023-01-23T02:13:38.647Z,71.56
2023-01-23T02:16:17.999Z,71.62
2023-01-23T02:18:49.034Z,71.13
2023-01-23T02:21:22.628Z,71.41
2023-01-23T02:23:56.709Z,71.40
2023-01-23T02:26:32.985Z,71.87
2023-01-23T02:29:00.009Z,72.02
2023-01-23T02:31:27.331Z,71.67
2023-01-23T02:33:59.624Z,72.51
2023-01-23T02:36:30.277Z,72.72
2023-01-23T02:39:18.288Z,73.05
2023-01-23T02:41:48.587Z,72.77
2023-01-23T02:44:33.793Z,72.93
2023-01-23T02:47:12.425Z,72.64
2023-01-23T02:49:40.419Z,72.88
2023-01-23T02:52:07.761Z,72.64
2023-01-23T02:54:34.605Z,72.65
2023-01-23T02:57:01.763Z,72.83
2023-01-23T02:59:46.991Z,72.68
2023-01-23T03:02:14.550Z,72.86
2023-01-23T03:04:41.848Z,72.87
2023-01-23T03:07:08.671Z,73.14
2023-01-23T03:09:35.697Z,73.18
2023-01-23T03:12:02.933Z,73.39
2023-01-23T03:14:32.316Z,73.56
2023-01-23T03:16:59.169Z,73.39
2023-01-23T03:19:27.084Z,73.67
2023-01-23T03:21:54.797Z,73.12
2023-01-23T03:24:21.927Z,73.45
2023-01-23T03:26:50.871Z,73.58
2023-01-23T03:29:40.392Z,73.35
2023-01-23T03:32:08.536Z,73.18
2023-01-23T03:34:35.739Z,73.24
2023-01-23T03:37:03.360Z,72.96
2023-01-23T03:39:49.238Z,72.94
2023-01-23T03:42:16.066Z,72.50
2023-01-23T03:44:43.315Z,72.63
2023-01-23T03:47:10.666Z,73.09
2023-01-23T03:49:37.513Z,73.11
2023-01-23T03:52:04.557Z,73.26
2023-01-23T03:54:31.415Z,73.14
2023-01-23T03:56:58.396Z,72.51
2023-01-23T03:59:25.199Z,73.02
2023-01-23T04:01:52.342Z,72.77
2023-01-23T04:04:19.195Z,72.95
2023-01-23T04:06:46.026Z,72.66
2023-01-23T04:09:13.115Z,72.75
2023-01-23T04:11:40.046Z,72.77
2023-01-23T04:14:07.044Z,72.67
2023-01-23T04:16:33.963Z,72.88
2023-01-23T04:19:00.839Z,72.94
2023-01-23T04:21:27.748Z,72.63
2023-01-23T04:23:54.546Z,72.89
2023-01-23T04:26:21.436Z,72.72
2023-01-23T04:28:48.236Z,72.64
2023-01-23T04:31:15.114Z,72.08
2023-01-23T04:33:42.091Z,72.74
2023-01-23T04:36:10.187Z,72.85
2023-01-23T04:38:37.151Z,72.20
2023-01-23T04:41:04.601Z,72.27
2023-01-23T04:43:31.824Z,72.15
2023-01-23T04:45:58.841Z,72.70
2023-01-23T04:48:26.275Z,72.54
2023-01-23T04:50:53.322Z,72.24
2023-01-23T04:53:20.323Z,72.30
2023-01-23T04:55:49.246Z,72.65
2023-01-23T04:58:18.653Z,72.53
2023-01-23T05:00:46.280Z,72.72
2023-01-23T05:03:14.263Z,72.83
2023-01-23T05:05:42.723Z,72.63
2023-01-23T05:08:10.904Z,72.95
2023-01-23T05:10:38.700Z,72.68
2023-01-23T05:13:05.686Z,72.53
2023-01-23T05:15:32.727Z,72.54
2023-01-23T05:17:59.672Z,72.87
2023-01-23T05:20:26.557Z,72.82
2023-01-23T05:22:53.533Z,72.33
2023-01-23T05:25:23.325Z,72.33
2023-01-23T05:27:50.341Z,72.47
2023-01-23T05:30:18.596Z,72.50
2023-01-23T05:32:45.844Z,72.79
2023-01-23T05:35:12.712Z,72.83
2023-01-23T05:37:39.683Z,72.73
2023-01-23T05:40:09.208Z,72.99
2023-01-23T05:42:36.082Z,72.71
2023-01-23T05:45:03.030Z,72.10
2023-01-23T05:47:30.125Z,72.11
2023-01-23T05:49:56.951Z,72.19
2023-01-23T05:52:24.003Z,72.16
2023-01-23T05:54:50.800Z,72.13
2023-01-23T05:57:17.731Z,72.64
2023-01-23T05:59:44.706Z,72.95
2023-01-23T06:02:11.903Z,73.00
2023-01-23T06:04:38.882Z,73.72
2023-01-23T06:07:08.287Z,73.72
2023-01-23T06:09:35.141Z,73.57
2023-01-23T06:12:02.017Z,73.41
2023-01-23T06:14:28.918Z,73.99
2023-01-23T06:16:55.714Z,73.51
2023-01-23T06:19:22.731Z,73.68
2023-01-23T06:21:49.584Z,73.71
2023-01-23T06:24:16.462Z,74.04
2023-01-23T06:26:43.365Z,73.79
2023-01-23T06:29:10.148Z,73.68
2023-01-23T06:31:37.165Z,73.71
2023-01-23T06:34:04.723Z,73.68
2023-01-23T06:36:31.707Z,73.45
2023-01-23T06:38:58.554Z,73.32
2023-01-23T06:41:25.546Z,73.47
2023-01-23T06:43:53.663Z,73.26
2023-01-23T06:46:21.482Z,73.87
2023-01-23T06:48:48.449Z,73.58
2023-01-23T06:51:15.337Z,73.73
2023-01-23T06:53:42.230Z,74.20
2023-01-23T06:56:14.132Z,73.99
2023-01-23T06:58:45.608Z,73.76
2023-01-23T07:01:16.303Z,73.76
2023-01-23T07:03:44.877Z,73.74
2023-01-23T07:06:13.473Z,73.71
2023-01-23T07:08:41.448Z,73.29
2023-01-23T07:11:09.216Z,73.45
2023-01-23T07:13:36.144Z,73.46
2023-01-23T07:16:03.405Z,73.72
2023-01-23T07:18:30.435Z,73.79
2023-01-23T07:20:57.504Z,73.43
2023-01-23T07:23:24.362Z,73.17
2023-01-23T07:25:51.331Z,73.13
2023-01-23T07:28:18.126Z,73.29
2023-01-23T07:30:45.066Z,72.77
2023-01-23T07:33:12.463Z,73.10
2023-01-23T07:35:40.632Z,72.76
2023-01-23T07:38:07.493Z,72.92
2023-01-23T07:40:34.411Z,72.96
2023-01-23T07:43:01.207Z,73.02
2023-01-23T07:45:28.033Z,72.65
2023-01-23T07:47:55.748Z,72.65
2023-01-23T07:50:22.818Z,72.86
2023-01-23T07:52:49.755Z,72.25
2023-01-23T07:55:16.709Z,72.54
2023-01-23T07:57:43.598Z,72.48
2023-01-23T08:00:11.145Z,71.93
2023-01-23T08:02:38.478Z,71.89
2023-01-23T08:05:06.086Z,71.34
2023-01-23T08:07:33.274Z,71.78
2023-01-23T08:10:00.139Z,71.74
2023-01-23T08:12:26.955Z,71.54
2023-01-23T08:14:53.785Z,71.28
2023-01-23T08:17:21.139Z,71.06
2023-01-23T08:19:49.179Z,70.95
2023-01-23T08:22:16.015Z,71.08
2023-01-23T08:24:42.836Z,70.93
2023-01-23T08:27:09.665Z,70.89
2023-01-23T08:29:36.524Z,70.88
2023-01-23T08:32:03.604Z,70.84
2023-01-23T08:34:30.492Z,70.36
2023-01-23T08:36:57.383Z,70.29
2023-01-23T08:39:24.512Z,69.76
2023-01-23T08:41:51.762Z,69.88
2023-01-23T08:44:18.589Z,69.86
2023-01-23T08:46:46.502Z,70.07
2023-01-23T08:49:13.767Z,69.63
2023-01-23T08:51:40.589Z,69.38
2023-01-23T08:54:07.460Z,69.41
2023-01-23T08:56:34.349Z,69.13
2023-01-23T08:59:01.172Z,69.66
2023-01-23T09:01:28.521Z,69.58
2023-01-23T09:03:56.702Z,69.13
2023-01-23T09:06:23.641Z,68.52
2023-01-23T09:08:50.633Z,68.50
2023-01-23T09:11:18.737Z,68.41
2023-01-23T09:13:47.366Z,67.44
2023-01-23T09:16:14.379Z,67.25
2023-01-23T09:18:41.310Z,67.55
2023-01-23T09:21:14.420Z,66.81
2023-01-23T09:23:41.306Z,66.11
2023-01-23T09:26:12.082Z,65.84
2023-01-23T09:28:42.043Z,65.94
2023-01-23T09:31:12.971Z,65.41
2023-01-23T09:33:41.214Z,65.14
2023-01-23T09:36:09.418Z,64.87
2023-01-23T09:38:36.719Z,64.98
2023-01-23T09:41:30.101Z,64.17
2023-01-23T09:44:09.318Z,64.53
2023-01-23T09:46:43.417Z,63.72
2023-01-23T09:49:33.955Z,64.09
2023-01-23T09:52:07.992Z,64.28
2023-01-23T09:55:02.153Z,64.33
2023-01-23T09:57:37.073Z,64.40
2023-01-23T10:00:14.843Z,64.44
2023-01-23T10:02:45.468Z,63.30
2023-01-23T10:05:18.086Z,63.30
2023-01-23T10:08:28.679Z,63.60
2023-01-23T10:11:27.140Z,63.47
2023-01-23T10:14:26.016Z,64.08
2023-01-23T10:17:04.707Z,63.69
2023-01-23T10:20:22.422Z,62.87
2023-01-23T10:23:18.737Z,62.11
2023-01-23T10:25:46.792Z,62.36
2023-01-23T10:28:39.298Z,63.01
2023-01-23T10:31:20.989Z,62.54
2023-01-23T10:34:14.581Z,62.52
2023-01-23T10:37:07.484Z,62.71
2023-01-23T10:39:53.428Z,63.83
2023-01-23T10:42:23.755Z,63.21
2023-01-23T10:44:51.299Z,64.05
2023-01-23T10:47:54.553Z,63.93
2023-01-23T10:50:40.653Z,64.00
2023-01-23T10:53:19.677Z,64.27
2023-01-23T10:55:48.112Z,64.39
2023-01-23T10:58:39.731Z,63.74
2023-01-23T11:01:26.714Z,63.76
2023-01-23T11:03:53.817Z,64.73
2023-01-23T11:06:25.984Z,63.84
2023-01-23T11:09:02.001Z,62.36
2023-01-23T11:11:31.831Z,63.25
2023-01-23T11:14:28.027Z,63.42
2023-01-23T11:17:25.130Z,62.98
2023-01-23T11:19:54.469Z,63.01
2023-01-23T11:22:30.768Z,62.86
2023-01-23T11:24:58.967Z,62.87
2023-01-23T11:27:31.073Z,62.82
2023-01-23T11:30:17.538Z,61.82
2023-01-23T11:32:59.239Z,62.85
2023-01-23T11:36:02.755Z,63.36
2023-01-23T11:38:52.490Z,62.19
2023-01-23T11:41:24.499Z,62.13
2023-01-23T11:43:52.777Z,62.70
2023-01-23T11:46:34.411Z,61.46
2023-01-23T11:49:24.677Z,61.17
2023-01-23T11:52:17.814Z,62.33
2023-01-23T11:55:07.982Z,61.93
2023-01-23T11:58:18.172Z,61.78
2023-01-23T12:00:49.802Z,61.80
2023-01-23T12:04:13.293Z,61.33
2023-01-23T12:06:52.536Z,62.50
2023-01-23T12:09:21.669Z,61.73
2023-01-23T12:12:22.285Z,61.71
2023-01-23T12:15:24.410Z,61.67
2023-01-23T12:18:16.183Z,62.30
2023-01-23T12:21:02.933Z,61.76
2023-01-23T12:24:03.109Z,60.83
2023-01-23T12:26:31.858Z,61.01
2023-01-23T12:29:35.539Z,62.41
2023-01-23T12:32:33.194Z,61.33
2023-01-23T12:35:14.948Z,61.06
2023-01-23T12:38:11.675Z,60.63
2023-01-23T12:40:56.252Z,60.81
2023-01-23T12:43:45.574Z,60.97
2023-01-23T12:46:45.130Z,62.17
2023-01-23T12:49:34.747Z,62.58
2023-01-23T12:52:29.109Z,61.85
2023-01-23T12:55:21.870Z,62.45
2023-01-23T12:58:07.804Z,62.08
2023-01-23T13:00:46.875Z,61.89
2023-01-23T13:03:47.433Z,62.30
2023-01-23T13:06:28.884Z,62.33
2023-01-23T13:09:39.837Z,62.85
2023-01-23T13:12:25.590Z,61.64
2023-01-23T13:15:15.482Z,61.23
2023-01-23T13:18:13.300Z,61.99
2023-01-23T13:21:15.715Z,61.85
2023-01-23T13:23:42.651Z,61.72
2023-01-23T13:26:15.735Z,62.19
2023-01-23T13:28:59.230Z,62.81
2023-01-23T13:31:46.685Z,64.20
2023-01-23T13:34:16.902Z,64.42
2023-01-23T13:36:49.445Z,64.22
2023-01-23T13:39:27.986Z,64.00
2023-01-23T13:42:15.783Z,64.64
2023-01-23T13:45:16.554Z,65.03
2023-01-23T14:22:44.200Z,66.09
2023-01-23T14:25:18.404Z,65.61
2023-01-23T14:27:53.366Z,66.00
2023-01-23T14:30:26.648Z,65.76
2023-01-23T14:32:54.289Z,66.21
2023-01-23T14:35:33.056Z,66.26
2023-01-23T14:38:05.031Z,66.07
2023-01-23T14:40:43.477Z,67.19
2023-01-23T14:43:26.862Z,66.65
2023-01-23T14:46:20.409Z,66.54
2023-01-23T14:48:54.572Z,66.77
2023-01-23T14:51:25.617Z,66.76
2023-01-23T14:54:20.434Z,67.11
2023-01-23T14:56:50.172Z,66.83
2023-01-23T14:59:36.024Z,67.56
2023-01-23T15:02:31.415Z,67.28
2023-01-23T15:05:27.062Z,67.33
2023-01-23T15:08:05.959Z,67.33
2023-01-23T15:10:35.758Z,67.22
2023-01-23T15:13:11.351Z,67.22
2023-01-23T15:15:44.660Z,66.80
2023-01-23T15:18:24.812Z,66.54
2023-01-23T15:21:04.653Z,66.77
2023-01-23T15:23:39.190Z,67.47
2023-01-23T15:26:14.707Z,66.98
2023-01-23T15:28:56.395Z,67.89
2023-01-23T15:31:28.407Z,67.77
2023-01-23T15:34:10.032Z,67.35
2023-01-23T15:36:36.999Z,67.72
2023-01-23T15:39:03.937Z,67.26
2023-01-23T15:41:53.538Z,67.69
2023-01-23T15:44:23.083Z,67.56
2023-01-23T15:46:50.182Z,67.63
2023-01-23T15:49:25.434Z,67.69
2023-01-23T15:51:59.589Z,67.37
2023-01-23T15:54:36.318Z,67.67
2023-01-23T15:57:08.766Z,67.87
2023-01-23T15:59:37.039Z,67.91
2023-01-23T16:02:06.445Z,68.15
2023-01-23T16:04:35.275Z,67.88
2023-01-23T16:07:07.412Z,68.22
2023-01-23T16:09:38.064Z,68.46
2023-01-23T16:12:05.465Z,68.29
2023-01-23T16:14:32.451Z,68.22
2023-01-23T16:17:11.514Z,68.77
2023-01-23T16:19:43.120Z,68.88
2023-01-23T16:22:25.154Z,68.41
2023-01-23T16:24:52.578Z,68.61
2023-01-23T16:27:27.117Z,68.38
2023-01-23T16:29:55.779Z,68.13
2023-01-23T16:32:22.893Z,68.19
2023-01-23T16:34:50.009Z,68.32
2023-01-23T16:37:19.143Z,68.87
2023-01-23T16:39:47.800Z,69.17
2023-01-23T16:42:24.927Z,68.60
2023-01-23T16:44:51.883Z,68.14
2023-01-23T16:47:18.952Z,68.51
2023-01-23T16:49:54.202Z,68.56
2023-01-23T16:52:25.080Z,68.78
2023-01-23T16:54:53.291Z,68.25
2023-01-23T16:57:21.235Z,68.40
2023-01-23T16:59:48.863Z,68.21
2023-01-23T17:02:25.972Z,68.17
2023-01-23T17:04:52.879Z,67.97
2023-01-23T17:07:20.364Z,68.15
2023-01-23T17:09:49.065Z,68.19
2023-01-23T17:12:27.760Z,68.52
2023-01-23T17:14:55.365Z,67.94
2023-01-23T17:17:35.675Z,68.12
2023-01-23T17:20:05.446Z,67.93
2023-01-23T17:22:39.159Z,67.50
2023-01-23T17:25:18.132Z,67.79
2023-01-23T17:27:51.907Z,67.70
2023-01-23T17:30:25.563Z,67.46
2023-01-23T17:32:55.726Z,67.71
2023-01-23T17:35:45.099Z,67.89
2023-01-23T17:38:21.684Z,68.09
2023-01-23T17:40:49.485Z,68.36
2023-01-23T17:43:18.637Z,67.79
2023-01-23T17:45:50.136Z,67.90
2023-01-23T17:48:28.349Z,68.04
2023-01-23T17:50:55.837Z,68.40
2023-01-23T17:53:23.996Z,68.22
2023-01-23T17:55:52.719Z,68.03
2023-01-23T17:58:20.601Z,68.28
2023-01-23T18:00:52.232Z,68.22
2023-01-23T18:03:24.705Z,68.17
2023-01-23T18:05:52.021Z,67.82
2023-01-23T18:08:23.990Z,67.87
2023-01-23T18:10:56.607Z,67.82
2023-01-23T18:13:47.378Z,68.20
2023-01-23T18:16:42.481Z,68.20
2023-01-23T18:19:21.324Z,68.70
2023-01-23T18:21:54.750Z,68.55
2023-01-23T18:24:30.036Z,68.50
2023-01-23T18:27:21.806Z,68.44
2023-01-23T18:30:00.415Z,68.38
2023-01-23T18:33:00.221Z,68.59
2023-01-23T18:35:52.045Z,69.12
2023-01-23T18:38:37.564Z,68.96
2023-01-23T18:41:25.033Z,68.62
2023-01-23T18:44:15.044Z,68.60
2023-01-23T18:46:42.219Z,68.74
2023-01-23T18:49:14.947Z,68.58
2023-01-23T18:52:01.584Z,68.77
2023-01-23T18:55:17.680Z,69.16
2023-01-23T18:58:08.887Z,69.27
2023-01-23T19:01:07.600Z,69.19
2023-01-23T19:03:55.275Z,69.18
2023-01-23T19:06:24.799Z,69.44
2023-01-23T19:08:54.240Z,69.70
2023-01-23T19:12:00.897Z,69.53
2023-01-23T19:15:00.330Z,69.53
2023-01-23T19:18:04.490Z,70.08
2023-01-23T19:21:00.495Z,70.37
2023-01-23T19:23:47.200Z,69.93
2023-01-23T19:26:16.436Z,70.08
2023-01-23T19:28:43.599Z,70.20
2023-01-23T19:31:22.664Z,70.31
2023-01-23T19:34:04.419Z,70.34
2023-01-23T19:36:35.039Z,70.06
2023-01-23T19:39:04.377Z,70.07
2023-01-23T19:41:53.259Z,69.78
2023-01-23T19:44:24.023Z,70.14
2023-01-23T19:46:51.927Z,70.11
2023-01-23T19:49:19.036Z,70.26
2023-01-23T19:51:47.331Z,70.43
2023-01-23T19:54:15.781Z,70.65
2023-01-23T19:56:42.769Z,70.88
2023-01-23T19:59:09.727Z,70.88
2023-01-23T20:01:43.309Z,71.13
2023-01-23T20:04:20.768Z,71.20
2023-01-23T20:06:53.936Z,71.31
2023-01-23T20:09:21.316Z,71.54
2023-01-23T20:11:48.638Z,71.92
2023-01-23T20:14:15.896Z,71.74
2023-01-23T20:16:43.627Z,71.70
2023-01-23T20:19:16.794Z,71.83
2023-01-23T20:21:44.097Z,72.03
2023-01-23T20:24:11.355Z,71.78
2023-01-23T20:26:39.299Z,71.65
2023-01-23T20:29:08.399Z,71.97
2023-01-23T20:31:35.769Z,72.12
2023-01-23T20:34:02.858Z,71.91
2023-01-23T20:36:29.824Z,72.33
2023-01-23T20:38:57.122Z,72.94
2023-01-23T20:41:24.104Z,72.71
2023-01-23T20:43:50.934Z,72.69
2023-01-23T20:46:19.265Z,72.50
2023-01-23T20:48:46.558Z,72.28
2023-01-23T20:51:15.769Z,72.56
2023-01-23T20:53:43.451Z,72.05
2023-01-23T20:56:27.467Z,72.08
2023-01-23T20:59:14.695Z,72.20
2023-01-23T21:02:01.136Z,72.51
2023-01-23T21:04:31.805Z,71.95
2023-01-23T21:06:59.683Z,72.07
2023-01-23T21:09:27.330Z,72.04
2023-01-23T21:11:54.938Z,71.61
2023-01-23T21:14:23.343Z,71.59
2023-01-23T21:16:50.279Z,71.67
2023-01-23T21:19:17.133Z,71.46
2023-01-23T21:21:44.198Z,71.89
2023-01-23T21:24:11.305Z,71.68
2023-01-23T21:26:38.309Z,71.32
2023-01-23T21:29:08.048Z,71.58
2023-01-23T21:31:39.347Z,71.41
2023-01-23T21:34:10.188Z,71.29
2023-01-23T21:36:37.948Z,72.48
2023-01-23T21:39:08.595Z,71.93
2023-01-23T21:41:36.418Z,71.89
2023-01-23T21:44:03.194Z,71.47
2023-01-23T21:46:30.120Z,71.39
2023-01-23T21:48:56.985Z,71.33
2023-01-23T21:51:27.837Z,71.53
2023-01-23T21:53:55.038Z,71.36
2023-01-23T21:56:23.439Z,71.33
2023-01-23T21:58:50.545Z,71.39
2023-01-23T22:01:36.066Z,71.65
2023-01-23T22:04:11.130Z,71.67
2023-01-23T22:06:41.265Z,71.95
2023-01-23T22:09:09.670Z,71.66
2023-01-23T22:11:36.936Z,72.45
2023-01-23T22:14:04.603Z,72.38
2023-01-23T22:16:47.511Z,72.13
2023-01-23T22:19:18.864Z,71.85
2023-01-23T22:21:46.547Z,71.95
2023-01-23T22:24:14.446Z,71.83
2023-01-23T22:26:41.384Z,71.92
2023-01-23T22:29:08.781Z,71.55
2023-01-23T22:31:35.760Z,71.86
2023-01-23T22:34:02.952Z,71.99
2023-01-23T22:36:29.830Z,72.27
2023-01-23T22:38:56.927Z,72.21
2023-01-23T22:41:24.154Z,72.52
2023-01-23T22:43:55.707Z,72.01
2023-01-23T22:46:23.593Z,71.86
2023-01-23T22:48:51.350Z,71.86
2023-01-23T22:51:26.820Z,72.16
2023-01-23T22:53:56.381Z,71.91
2023-01-23T22:56:25.526Z,71.96
2023-01-23T22:58:54.342Z,71.96
2023-01-23T23:01:23.384Z,72.05
2023-01-23T23:03:51.673Z,72.10
2023-01-23T23:06:19.419Z,72.18
2023-01-23T23:08:48.145Z,72.47
2023-01-23T23:11:23.965Z,71.84
2023-01-23T23:13:51.255Z,72.19
2023-01-23T23:16:25.070Z,72.03
2023-01-23T23:18:54.853Z,71.92
2023-01-23T23:21:25.306Z,72.75
2023-01-23T23:23:57.124Z,72.06
2023-01-23T23:26:26.628Z,72.05
2023-01-23T23:28:54.633Z,71.98
2023-01-23T23:31:21.555Z,71.84
2023-01-23T23:33:48.475Z,71.91
2023-01-23T23:36:15.301Z,72.43
2023-01-23T23:38:42.133Z,72.10
2023-01-23T23:41:13.491Z,72.15
2023-01-23T23:43:41.122Z,72.02
2023-01-23T23:46:09.728Z,72.32
2023-01-23T23:48:38.038Z,72.25
2023-01-23T23:51:08.984Z,72.00
2023-01-23T23:53:36.603Z,72.36
2023-01-23T23:56:05.019Z,72.26
2023-01-23T23:58:32.538Z,72.12
